createdAt,value
2023-08-30T00:01:15.407Z,12.30
2023-08-30T00:03:42.440Z,12.30
2023-08-30T00:06:10.037Z,12.30
2023-08-30T00:08:37.007Z,12.30
2023-08-30T00:11:05.501Z,12.30
2023-08-30T00:13:34.237Z,12.30
2023-08-30T00:16:03.193Z,12.30
2023-08-30T00:18:30.417Z,12.20
2023-08-30T00:20:58.306Z,12.30
2023-08-30T00:23:25.450Z,12.30
2023-08-30T00:25:52.254Z,12.30
2023-08-30T00:28:19.014Z,12.40
2023-08-30T00:30:45.864Z,12.40
2023-08-30T00:33:12.664Z,12.40
2023-08-30T00:35:39.496Z,12.30
2023-08-30T00:38:06.813Z,12.60
2023-08-30T00:40:42.268Z,12.70
2023-08-30T00:43:09.366Z,12.80
2023-08-30T00:45:39.350Z,12.90
2023-08-30T00:48:06.944Z,12.90
2023-08-30T00:50:35.375Z,13.00
2023-08-30T00:53:06.457Z,13.10
2023-08-30T00:55:36.635Z,13.10
2023-08-30T00:58:04.220Z,13.20
2023-08-30T01:00:32.388Z,13.20
2023-08-30T01:02:59.989Z,13.20
2023-08-30T01:05:26.861Z,13.30
2023-08-30T01:07:53.769Z,13.30
2023-08-30T01:10:28.837Z,13.40
2023-08-30T01:12:58.352Z,13.40
2023-08-30T01:15:26.585Z,13.50
2023-08-30T01:17:54.271Z,13.50
2023-08-30T01:20:24.184Z,13.40
2023-08-30T01:23:00.563Z,13.40
2023-08-30T01:25:56.491Z,13.30
2023-08-30T01:28:24.696Z,13.40
2023-08-30T01:30:55.707Z,13.30
2023-08-30T01:33:23.852Z,13.30
2023-08-30T01:35:51.252Z,13.30
2023-08-30T01:38:18.512Z,13.40
2023-08-30T01:40:46.848Z,13.40
2023-08-30T01:43:15.371Z,13.40
2023-08-30T01:45:44.689Z,13.40
2023-08-30T01:48:17.905Z,13.50
2023-08-30T01:50:45.208Z,13.50
2023-08-30T01:53:13.666Z,13.50
2023-08-30T01:55:41.098Z,13.50
2023-08-30T01:58:09.059Z,13.60
2023-08-30T02:00:37.129Z,13.60
2023-08-30T02:03:14.687Z,13.60
2023-08-30T02:05:50.787Z,13.70
2023-08-30T02:08:18.572Z,13.70
2023-08-30T02:10:59.202Z,13.70
2023-08-30T02:13:30.804Z,13.70
2023-08-30T02:16:00.059Z,13.70
2023-08-30T02:18:28.214Z,13.80
2023-08-30T02:20:56.848Z,13.80
2023-08-30T02:23:26.754Z,13.80
2023-08-30T02:25:56.358Z,13.90
2023-08-30T02:28:23.262Z,13.80
2023-08-30T02:30:54.237Z,13.90
2023-08-30T02:33:21.126Z,13.90
2023-08-30T02:35:48.061Z,13.90
2023-08-30T02:38:14.966Z,13.90
2023-08-30T02:40:41.710Z,13.90
2023-08-30T02:43:08.493Z,13.90
2023-08-30T02:45:35.908Z,13.90
2023-08-30T02:48:02.851Z,13.80
2023-08-30T02:50:29.726Z,13.90
2023-08-30T02:52:56.580Z,13.90
2023-08-30T02:55:23.403Z,13.90
2023-08-30T02:57:50.217Z,13.90
2023-08-30T03:00:17.497Z,13.90
2023-08-30T03:02:44.384Z,13.90
2023-08-30T03:05:13.017Z,13.80
2023-08-30T03:07:39.850Z,13.80
2023-08-30T03:10:07.598Z,13.80
2023-08-30T03:12:34.510Z,13.80
2023-08-30T03:15:01.634Z,13.70
2023-08-30T03:17:30.412Z,13.70
2023-08-30T03:19:59.183Z,13.50
2023-08-30T03:22:29.447Z,13.50
2023-08-30T03:24:56.266Z,13.50
2023-08-30T03:27:23.155Z,13.50
2023-08-30T03:29:49.971Z,13.40
2023-08-30T03:32:19.233Z,13.40
2023-08-30T03:34:46.862Z,13.30
2023-08-30T03:37:15.580Z,13.20
2023-08-30T03:39:42.534Z,13.10
2023-08-30T03:42:09.648Z,13.20
2023-08-30T03:44:39.020Z,13.20
2023-08-30T03:47:06.301Z,13.20
2023-08-30T03:49:33.081Z,13.10
2023-08-30T03:52:00.091Z,13.10
2023-08-30T03:54:27.288Z,13.20
2023-08-30T03:56:54.162Z,13.20
2023-08-30T03:59:21.018Z,13.20
2023-08-30T04:01:48.160Z,13.30
2023-08-30T04:04:15.685Z,13.20
2023-08-30T04:06:42.761Z,13.30
2023-08-30T04:09:09.700Z,13.40
2023-08-30T04:11:36.499Z,13.40
2023-08-30T04:14:03.467Z,13.40
2023-08-30T04:16:30.759Z,13.40
2023-08-30T04:18:58.367Z,13.40
2023-08-30T04:21:25.314Z,13.40
2023-08-30T04:23:52.072Z,13.40
2023-08-30T04:26:18.846Z,13.40
2023-08-30T04:28:46.153Z,13.40
2023-08-30T04:31:12.939Z,13.40
2023-08-30T04:33:40.360Z,13.30
2023-08-30T04:36:07.275Z,13.20
2023-08-30T04:38:36.277Z,13.20
2023-08-30T04:41:06.608Z,13.20
2023-08-30T04:43:33.456Z,13.20
2023-08-30T04:46:00.234Z,13.20
2023-08-30T04:48:27.024Z,13.20
2023-08-30T04:51:04.412Z,13.10
2023-08-30T04:53:31.598Z,13.30
2023-08-30T04:55:58.400Z,13.30
2023-08-30T04:58:25.367Z,13.30
2023-08-30T05:00:52.218Z,13.30
2023-08-30T05:03:19.429Z,13.40
2023-08-30T05:05:47.404Z,13.40
2023-08-30T05:08:14.185Z,13.40
2023-08-30T05:10:41.716Z,13.50
2023-08-30T05:13:08.515Z,13.40
2023-08-30T05:15:35.689Z,13.50
2023-08-30T05:18:02.809Z,13.50
2023-08-30T05:20:29.825Z,13.50
2023-08-30T05:22:57.321Z,13.50
2023-08-30T05:25:24.350Z,13.60
2023-08-30T05:27:51.436Z,13.60
2023-08-30T05:30:18.824Z,13.60
2023-08-30T05:32:45.963Z,13.70
2023-08-30T05:35:12.837Z,13.70
2023-08-30T05:37:39.567Z,13.80
2023-08-30T05:40:07.125Z,13.90
2023-08-30T05:42:33.914Z,13.90
2023-08-30T05:45:00.714Z,14.00
2023-08-30T05:47:27.514Z,14.00
2023-08-30T05:49:54.302Z,14.20
2023-08-30T05:52:21.166Z,14.30
2023-08-30T05:54:48.051Z,14.30
2023-08-30T05:57:14.990Z,14.30
2023-08-30T05:59:41.733Z,14.40
2023-08-30T06:02:08.726Z,14.30
2023-08-30T06:04:35.534Z,14.40
2023-08-30T06:07:02.264Z,14.50
2023-08-30T06:09:29.031Z,14.50
2023-08-30T06:11:55.789Z,14.60
2023-08-30T06:14:23.004Z,14.70
2023-08-30T06:16:50.106Z,14.70
2023-08-30T06:19:16.983Z,14.80
2023-08-30T06:21:43.721Z,14.80
2023-08-30T06:24:10.446Z,14.80
2023-08-30T06:26:37.181Z,14.90
2023-08-30T06:29:05.455Z,15.00
2023-08-30T06:31:33.753Z,15.00
2023-08-30T06:34:01.258Z,15.20
2023-08-30T06:36:28.115Z,15.20
2023-08-30T06:38:54.958Z,15.30
2023-08-30T06:41:22.082Z,15.40
2023-08-30T06:43:48.825Z,15.50
2023-08-30T06:46:15.674Z,15.70
2023-08-30T06:48:42.557Z,15.80
2023-08-30T06:51:09.334Z,15.90
2023-08-30T06:53:36.194Z,15.90
2023-08-30T06:56:03.423Z,15.90
2023-08-30T06:58:30.920Z,16.10
2023-08-30T07:01:01.322Z,16.30
2023-08-30T07:03:28.260Z,16.50
2023-08-30T07:05:55.538Z,16.80
2023-08-30T07:08:22.462Z,17.00
2023-08-30T07:10:49.302Z,17.20
2023-08-30T07:13:16.135Z,17.10
2023-08-30T07:15:43.577Z,17.10
2023-08-30T07:18:11.362Z,17.00
2023-08-30T07:20:40.572Z,17.00
2023-08-30T07:23:10.771Z,17.20
2023-08-30T07:25:39.033Z,17.50
2023-08-30T07:28:10.358Z,17.80
2023-08-30T07:30:39.093Z,18.10
2023-08-30T07:33:06.166Z,18.30
2023-08-30T07:35:34.234Z,18.40
2023-08-30T07:38:01.108Z,18.60
2023-08-30T07:40:29.636Z,18.70
2023-08-30T07:42:59.289Z,18.80
2023-08-30T07:45:26.934Z,18.90
2023-08-30T07:47:53.843Z,19.10
2023-08-30T07:50:20.709Z,19.20
2023-08-30T07:52:47.501Z,19.10
2023-08-30T07:55:15.054Z,19.10
2023-08-30T07:57:41.864Z,19.20
2023-08-30T08:00:09.788Z,19.50
2023-08-30T08:02:36.649Z,19.50
2023-08-30T08:05:03.766Z,19.40
2023-08-30T08:07:30.903Z,19.20
2023-08-30T08:09:58.267Z,19.10
2023-08-30T08:12:25.086Z,19.10
2023-08-30T08:14:52.860Z,19.30
2023-08-30T08:17:19.700Z,19.50
2023-08-30T08:19:46.564Z,19.70
2023-08-30T08:22:13.432Z,19.90
2023-08-30T08:24:40.365Z,20.20
2023-08-30T08:27:07.222Z,20.40
2023-08-30T08:29:34.366Z,20.40
2023-08-30T08:32:01.553Z,20.60
2023-08-30T08:34:28.680Z,20.70
2023-08-30T08:36:55.535Z,20.90
2023-08-30T08:39:22.417Z,20.80
2023-08-30T08:41:49.363Z,20.90
2023-08-30T08:44:17.831Z,21.10
2023-08-30T08:46:45.769Z,21.40
2023-08-30T08:49:17.710Z,21.70
2023-08-30T08:51:45.721Z,21.60
2023-08-30T08:54:13.690Z,21.50
2023-08-30T08:56:41.771Z,21.60
2023-08-30T08:59:09.416Z,21.80
2023-08-30T09:01:37.461Z,21.90
2023-08-30T09:04:09.498Z,22.00
2023-08-30T09:06:37.681Z,22.00
2023-08-30T09:09:05.985Z,21.80
2023-08-30T09:14:03.555Z,21.80
2023-08-30T09:16:30.485Z,22.00
2023-08-30T09:19:10.545Z,22.00
2023-08-30T09:21:38.342Z,22.20
2023-08-30T09:24:07.290Z,22.40
2023-08-30T09:26:36.822Z,22.50
2023-08-30T09:29:07.846Z,22.40
2023-08-30T09:31:39.597Z,22.50
2023-08-30T09:34:07.161Z,22.70
2023-08-30T09:36:42.227Z,22.50
2023-08-30T09:39:13.461Z,22.50
2023-08-30T09:41:44.905Z,22.70
2023-08-30T09:44:16.682Z,22.90
2023-08-30T09:46:49.988Z,22.90
2023-08-30T09:49:27.335Z,22.80
2023-08-30T09:51:55.920Z,22.80
2023-08-30T09:54:39.108Z,23.10
2023-08-30T09:57:07.145Z,23.20
2023-08-30T09:59:34.795Z,23.50
2023-08-30T10:02:02.575Z,24.00
2023-08-30T10:04:31.147Z,23.70
2023-08-30T10:06:59.391Z,23.00
2023-08-30T10:09:26.468Z,22.70
2023-08-30T10:11:54.402Z,22.50
2023-08-30T10:14:21.191Z,22.50
2023-08-30T10:16:49.936Z,22.80
2023-08-30T10:19:29.906Z,23.10
2023-08-30T10:22:10.055Z,23.00
2023-08-30T10:24:57.150Z,23.20
2023-08-30T10:27:32.991Z,23.20
2023-08-30T10:30:02.371Z,23.50
2023-08-30T10:32:29.460Z,23.70
2023-08-30T10:34:56.262Z,24.00
2023-08-30T10:37:28.680Z,23.90
2023-08-30T10:40:01.630Z,23.80
2023-08-30T10:42:28.379Z,23.50
2023-08-30T10:47:33.983Z,22.40
2023-08-30T10:50:05.489Z,21.90
2023-08-30T10:52:32.409Z,21.50
2023-08-30T10:55:16.789Z,21.10
2023-08-30T10:57:46.001Z,21.00
2023-08-30T11:00:20.684Z,21.00
2023-08-30T11:02:50.832Z,21.00
2023-08-30T11:05:19.341Z,20.90
2023-08-30T11:07:47.967Z,20.80
2023-08-30T11:10:15.580Z,20.70
2023-08-30T11:12:43.376Z,20.80
2023-08-30T11:15:12.056Z,20.90
2023-08-30T11:17:39.000Z,21.20
2023-08-30T11:20:10.846Z,21.40
2023-08-30T11:22:43.151Z,21.40
2023-08-30T11:25:11.520Z,21.90
2023-08-30T11:27:39.438Z,22.20
2023-08-30T11:30:09.328Z,22.20
2023-08-30T11:32:41.213Z,22.10
2023-08-30T11:35:09.018Z,22.10
2023-08-30T11:37:36.282Z,22.00
2023-08-30T11:40:05.413Z,21.90
2023-08-30T11:42:33.315Z,21.70
2023-08-30T11:45:00.978Z,21.60
2023-08-30T11:47:28.681Z,21.10
2023-08-30T11:49:57.417Z,20.80
2023-08-30T11:52:25.463Z,20.70
2023-08-30T11:54:53.790Z,20.60
2023-08-30T11:57:21.915Z,20.50
2023-08-30T11:59:49.339Z,20.30
2023-08-30T12:02:18.798Z,20.30
2023-08-30T12:04:47.770Z,20.30
2023-08-30T12:07:25.657Z,20.30
2023-08-30T12:09:53.242Z,20.40
2023-08-30T12:12:20.279Z,20.50
2023-08-30T12:14:57.384Z,20.60
2023-08-30T12:17:24.807Z,20.70
2023-08-30T12:19:58.730Z,20.80
2023-08-30T12:22:36.217Z,20.70
2023-08-30T12:25:03.774Z,20.70
2023-08-30T12:27:31.378Z,20.80
2023-08-30T12:29:58.243Z,20.80
2023-08-30T12:32:25.374Z,20.80
2023-08-30T12:34:52.301Z,20.70
2023-08-30T12:37:19.203Z,20.70
2023-08-30T12:39:46.392Z,20.60
2023-08-30T12:42:13.495Z,20.60
2023-08-30T12:44:40.466Z,20.60
2023-08-30T12:47:07.533Z,20.50
2023-08-30T12:49:34.860Z,20.50
2023-08-30T12:52:01.896Z,20.50
2023-08-30T12:54:29.071Z,20.40
2023-08-30T12:56:56.073Z,20.30
2023-08-30T12:59:23.111Z,20.30
2023-08-30T13:01:50.038Z,20.20
2023-08-30T13:04:17.049Z,20.20
2023-08-30T13:06:44.053Z,20.20
2023-08-30T13:09:10.931Z,20.20
2023-08-30T13:11:38.094Z,20.20
2023-08-30T13:14:05.524Z,20.20
2023-08-30T13:16:32.461Z,20.10
2023-08-30T13:18:59.726Z,20.00
2023-08-30T13:21:39.279Z,20.00
2023-08-30T13:24:08.395Z,20.00
2023-08-30T13:26:35.454Z,20.10
2023-08-30T13:29:03.901Z,20.00
2023-08-30T13:31:31.040Z,20.00
2023-08-30T13:33:58.068Z,20.00
2023-08-30T13:36:25.243Z,20.00
2023-08-30T13:38:54.285Z,19.90
2023-08-30T13:41:21.121Z,19.70
2023-08-30T13:43:48.202Z,19.60
2023-08-30T13:46:15.233Z,19.40
2023-08-30T13:48:42.854Z,19.20
2023-08-30T13:51:09.629Z,19.00
2023-08-30T13:53:36.380Z,18.90
2023-08-30T13:56:03.150Z,18.80
2023-08-30T13:58:30.028Z,18.70
2023-08-30T14:00:56.919Z,18.50
2023-08-30T14:03:23.773Z,18.30
2023-08-30T14:05:50.528Z,18.00
2023-08-30T14:08:17.919Z,17.80
2023-08-30T14:10:44.700Z,17.70
2023-08-30T14:13:11.891Z,17.70
2023-08-30T14:15:39.244Z,17.60
2023-08-30T14:18:06.233Z,17.50
2023-08-30T14:20:33.232Z,17.40
2023-08-30T14:23:00.402Z,17.30
2023-08-30T14:25:27.413Z,17.20
2023-08-30T14:27:54.301Z,17.20
2023-08-30T14:30:21.258Z,17.20
2023-08-30T14:32:48.298Z,17.10
2023-08-30T14:35:15.232Z,17.00
2023-08-30T14:37:42.349Z,16.90
2023-08-30T14:40:09.620Z,16.80
2023-08-30T14:42:36.623Z,16.60
2023-08-30T14:45:03.819Z,16.50
2023-08-30T14:47:32.378Z,16.30
2023-08-30T14:49:59.326Z,16.30
2023-08-30T14:52:26.322Z,16.20
2023-08-30T14:54:53.120Z,16.20
2023-08-30T14:57:20.009Z,16.10
2023-08-30T14:59:48.040Z,16.00
2023-08-30T15:02:15.631Z,16.00
2023-08-30T15:04:42.521Z,15.90
2023-08-30T15:07:09.282Z,15.90
2023-08-30T15:09:36.045Z,15.90
2023-08-30T15:12:02.914Z,15.90
2023-08-30T15:14:29.706Z,15.90
2023-08-30T15:16:56.556Z,15.90
2023-08-30T15:19:23.380Z,15.90
2023-08-30T15:21:50.187Z,15.90
2023-08-30T15:24:18.336Z,15.90
2023-08-30T15:26:45.284Z,15.90
2023-08-30T15:29:12.236Z,15.80
2023-08-30T15:31:39.062Z,15.80
2023-08-30T15:34:06.033Z,15.80
2023-08-30T15:36:33.122Z,15.80
2023-08-30T15:39:00.385Z,15.80
2023-08-30T15:41:27.494Z,15.80
2023-08-30T15:43:54.705Z,15.70
2023-08-30T15:46:22.356Z,15.70
2023-08-30T15:48:49.337Z,15.60
2023-08-30T15:51:24.338Z,15.60
2023-08-30T15:53:52.840Z,15.60
2023-08-30T15:56:21.338Z,15.60
2023-08-30T15:58:49.018Z,15.60
2023-08-30T16:01:17.301Z,15.40
2023-08-30T16:03:44.517Z,15.40
2023-08-30T16:06:11.818Z,15.40
2023-08-30T16:08:38.996Z,15.40
2023-08-30T16:11:06.689Z,15.30
2023-08-30T16:13:33.830Z,15.30
2023-08-30T16:16:01.681Z,15.30
2023-08-30T16:18:30.271Z,15.30
2023-08-30T16:20:57.351Z,15.30
2023-08-30T16:23:25.262Z,15.30
2023-08-30T16:25:52.076Z,15.20
2023-08-30T16:28:19.000Z,15.30
2023-08-30T16:30:46.173Z,15.20
2023-08-30T16:33:13.164Z,15.20
2023-08-30T16:35:40.344Z,15.10
2023-08-30T16:38:08.453Z,15.10
2023-08-30T16:40:36.695Z,15.10
2023-08-30T16:43:05.453Z,15.00
2023-08-30T16:45:32.188Z,15.00
2023-08-30T16:48:07.173Z,14.90
2023-08-30T16:50:35.874Z,14.80
2023-08-30T16:53:04.058Z,14.90
2023-08-30T16:55:30.906Z,14.90
2023-08-30T16:57:58.417Z,14.90
2023-08-30T17:00:25.480Z,15.00
2023-08-30T17:02:55.739Z,14.80
2023-08-30T17:05:22.958Z,14.80
2023-08-30T17:07:53.695Z,14.80
2023-08-30T17:10:21.369Z,14.80
2023-08-30T17:12:48.267Z,14.80
2023-08-30T17:15:15.506Z,14.70
2023-08-30T17:17:42.372Z,14.80
2023-08-30T17:20:10.590Z,14.70
2023-08-30T17:22:37.721Z,14.80
2023-08-30T17:25:05.258Z,14.70
2023-08-30T17:27:32.288Z,14.70
2023-08-30T17:29:59.403Z,14.70
2023-08-30T17:32:26.482Z,14.70
2023-08-30T17:34:53.655Z,14.60
2023-08-30T17:37:20.684Z,14.60
2023-08-30T17:39:47.953Z,14.70
2023-08-30T17:42:15.182Z,14.60
2023-08-30T17:44:50.377Z,14.60
2023-08-30T17:47:24.787Z,14.60
2023-08-30T17:49:52.078Z,14.60
2023-08-30T17:52:19.408Z,14.60
2023-08-30T17:54:46.711Z,14.50
2023-08-30T17:57:13.933Z,14.60
2023-08-30T17:59:41.226Z,14.60
2023-08-30T18:02:13.902Z,14.50
2023-08-30T18:04:43.786Z,14.50
2023-08-30T18:07:10.710Z,14.50
2023-08-30T18:09:38.861Z,14.50
2023-08-30T18:12:06.691Z,14.50
2023-08-30T18:14:33.870Z,14.50
2023-08-30T18:17:01.131Z,14.50
2023-08-30T18:19:28.366Z,14.50
2023-08-30T18:21:55.678Z,14.50
2023-08-30T18:24:24.924Z,14.40
2023-08-30T18:26:53.187Z,14.40
2023-08-30T18:29:24.822Z,14.40
2023-08-30T18:31:52.094Z,14.40
2023-08-30T18:34:19.006Z,14.30
2023-08-30T18:36:46.662Z,14.30
2023-08-30T18:39:18.259Z,14.30
2023-08-30T18:41:45.311Z,14.30
2023-08-30T18:44:12.786Z,14.20
2023-08-30T18:46:40.023Z,14.20
2023-08-30T18:49:07.556Z,14.20
2023-08-30T18:51:36.011Z,14.30
2023-08-30T18:54:05.789Z,14.20
2023-08-30T18:56:33.730Z,14.20
2023-08-30T18:59:01.026Z,14.20
2023-08-30T19:01:32.289Z,14.10
2023-08-30T19:03:59.985Z,14.10
2023-08-30T19:06:28.090Z,14.10
2023-08-30T19:08:55.623Z,14.10
2023-08-30T19:11:22.909Z,14.10
2023-08-30T19:13:50.355Z,14.10
2023-08-30T19:16:18.723Z,14.10
2023-08-30T19:18:47.562Z,14.10
2023-08-30T19:21:15.939Z,14.10
2023-08-30T19:23:45.746Z,14.10
2023-08-30T19:26:13.268Z,14.10
2023-08-30T19:28:40.331Z,14.10
2023-08-30T19:31:07.226Z,14.10
2023-08-30T19:33:34.477Z,14.10
2023-08-30T19:36:01.769Z,14.10
2023-08-30T19:38:28.724Z,14.10
2023-08-30T19:40:56.810Z,14.00
2023-08-30T19:43:24.288Z,14.10
2023-08-30T19:46:03.494Z,14.10
2023-08-30T19:48:31.085Z,14.10
2023-08-30T19:50:59.764Z,14.00
2023-08-30T19:53:28.123Z,14.00
2023-08-30T19:55:57.117Z,14.00
2023-08-30T19:58:24.555Z,14.00
2023-08-30T20:00:52.600Z,14.00
2023-08-30T20:03:20.926Z,14.00
2023-08-30T20:05:50.174Z,14.00
2023-08-30T20:08:18.068Z,13.90
2023-08-30T20:10:45.716Z,14.00
2023-08-30T20:13:13.418Z,13.90
2023-08-30T20:15:42.199Z,14.00
2023-08-30T20:18:11.157Z,14.00
2023-08-30T20:20:38.997Z,14.00
2023-08-30T20:23:07.539Z,13.90
2023-08-30T20:25:37.493Z,13.90
2023-08-30T20:28:05.246Z,13.90
2023-08-30T20:30:32.411Z,13.90
2023-08-30T20:32:59.687Z,13.80
2023-08-30T20:35:27.086Z,13.80
2023-08-30T20:37:57.390Z,13.80
2023-08-30T20:40:24.744Z,13.80
2023-08-30T20:42:52.041Z,13.80
2023-08-30T20:45:19.087Z,13.80
2023-08-30T20:47:46.425Z,13.70
2023-08-30T20:50:13.832Z,13.70
2023-08-30T20:52:40.821Z,13.70
2023-08-30T20:55:08.460Z,13.70
2023-08-30T20:57:36.042Z,13.70
2023-08-30T21:00:07.022Z,13.70
2023-08-30T21:02:35.581Z,13.70
2023-08-30T21:05:02.845Z,13.60
2023-08-30T21:07:30.022Z,13.70
2023-08-30T21:09:56.914Z,13.70
2023-08-30T21:12:23.688Z,13.70
2023-08-30T21:14:50.705Z,13.70
2023-08-30T21:17:18.028Z,13.70
2023-08-30T21:19:45.037Z,13.60
2023-08-30T21:22:11.922Z,13.70
2023-08-30T21:24:40.022Z,13.70
2023-08-30T21:27:07.182Z,13.60
2023-08-30T21:29:34.394Z,13.60
2023-08-30T21:32:01.489Z,13.60
2023-08-30T21:34:28.323Z,13.50
2023-08-30T21:36:55.475Z,13.50
2023-08-30T21:39:22.349Z,13.50
2023-08-30T21:41:49.579Z,13.50
2023-08-30T21:44:16.521Z,13.40
2023-08-30T21:46:45.982Z,13.40
2023-08-30T21:49:12.863Z,13.40
2023-08-30T21:51:39.775Z,13.40
2023-08-30T21:54:07.068Z,13.30
2023-08-30T21:56:34.930Z,13.20
2023-08-30T21:59:02.093Z,13.20
2023-08-30T22:01:29.062Z,13.20
2023-08-30T22:03:55.997Z,13.20
2023-08-30T22:06:22.867Z,13.10
2023-08-30T22:08:50.604Z,13.00
2023-08-30T22:11:17.482Z,12.90
2023-08-30T22:13:44.394Z,13.00
2023-08-30T22:16:11.290Z,12.90
2023-08-30T22:18:38.208Z,12.90
2023-08-30T22:21:05.207Z,12.90
2023-08-30T22:23:32.065Z,12.80
2023-08-30T22:25:58.841Z,12.80
2023-08-30T22:28:25.679Z,12.80
2023-08-30T22:30:55.167Z,12.70
2023-08-30T22:33:22.176Z,12.60
2023-08-30T22:35:49.150Z,12.60
2023-08-30T22:38:16.235Z,12.60
2023-08-30T22:40:43.200Z,12.60
2023-08-30T22:43:11.435Z,12.50
2023-08-30T22:45:39.157Z,12.50
2023-08-30T22:48:07.271Z,12.50
2023-08-30T22:50:35.892Z,12.40
2023-08-30T22:53:02.808Z,12.40
2023-08-30T22:55:30.138Z,12.40
2023-08-30T22:57:56.949Z,12.30
2023-08-30T23:00:23.816Z,12.30
2023-08-30T23:02:52.047Z,12.30
2023-08-30T23:05:19.097Z,12.40
2023-08-30T23:07:46.408Z,12.20
2023-08-30T23:10:14.381Z,12.20
2023-08-30T23:12:42.204Z,12.20
2023-08-30T23:15:09.440Z,12.20
2023-08-30T23:17:46.740Z,12.10
2023-08-30T23:20:16.012Z,12.20
2023-08-30T23:22:44.116Z,12.10
2023-08-30T23:25:11.752Z,12.30
2023-08-30T23:27:41.531Z,12.10
2023-08-30T23:30:09.325Z,12.10
2023-08-30T23:32:39.348Z,12.00
2023-08-30T23:35:06.813Z,12.10
2023-08-30T23:37:33.712Z,12.00
2023-08-30T23:40:00.487Z,12.00
2023-08-30T23:42:28.378Z,12.00
2023-08-30T23:44:55.264Z,12.10
2023-08-30T23:47:22.508Z,12.10
2023-08-30T23:49:49.417Z,12.10
2023-08-30T23:52:17.294Z,12.10
2023-08-30T23:54:44.085Z,12.00
2023-08-30T23:57:10.805Z,12.00
2023-08-30T23:59:37.627Z,12.00
